sensor_id;sensor_type;location;lat;lon;timestamp;P1;durP1;ratioP1;P2;durP2;ratioP2
75044;SDS011;63614;56.026;35.960;2022-12-07T00:00:30;6.22;;;3.40;;
75044;SDS011;63614;56.026;35.960;2022-12-07T00:02:56;5.95;;;3.53;;
75044;SDS011;63614;56.026;35.960;2022-12-07T00:05:22;4.93;;;2.88;;
75044;SDS011;63614;56.026;35.960;2022-12-07T00:07:48;8.75;;;3.30;;
75044;SDS011;63614;56.026;35.960;2022-12-07T00:10:14;4.63;;;2.53;;
75044;SDS011;63614;56.026;35.960;2022-12-07T00:12:40;7.13;;;2.95;;
75044;SDS011;63614;56.026;35.960;2022-12-07T00:15:06;5.82;;;3.05;;
75044;SDS011;63614;56.026;35.960;2022-12-07T00:17:32;7.72;;;2.70;;
75044;SDS011;63614;56.026;35.960;2022-12-07T00:19:59;5.65;;;2.95;;
75044;SDS011;63614;56.026;35.960;2022-12-07T00:22:24;10.43;;;3.20;;
75044;SDS011;63614;56.026;35.960;2022-12-07T00:24:50;5.85;;;3.10;;
75044;SDS011;63614;56.026;35.960;2022-12-07T00:27:16;6.45;;;2.78;;
75044;SDS011;63614;56.026;35.960;2022-12-07T00:29:42;11.52;;;3.45;;
75044;SDS011;63614;56.026;35.960;2022-12-07T00:32:07;6.18;;;3.22;;
75044;SDS011;63614;56.026;35.960;2022-12-07T00:34:33;9.27;;;2.85;;
75044;SDS011;63614;56.026;35.960;2022-12-07T00:36:59;5.65;;;3.25;;
75044;SDS011;63614;56.026;35.960;2022-12-07T00:39:25;4.80;;;2.83;;
75044;SDS011;63614;56.026;35.960;2022-12-07T00:41:51;4.28;;;2.42;;
75044;SDS011;63614;56.026;35.960;2022-12-07T00:44:16;6.00;;;3.00;;
75044;SDS011;63614;56.026;35.960;2022-12-07T00:46:42;6.65;;;2.95;;
75044;SDS011;63614;56.026;35.960;2022-12-07T00:49:08;5.80;;;2.80;;
75044;SDS011;63614;56.026;35.960;2022-12-07T00:51:34;7.75;;;3.25;;
75044;SDS011;63614;56.026;35.960;2022-12-07T00:54:00;8.65;;;2.90;;
75044;SDS011;63614;56.026;35.960;2022-12-07T00:56:26;14.77;;;3.33;;
75044;SDS011;63614;56.026;35.960;2022-12-07T00:58:54;9.18;;;3.33;;
75044;SDS011;63614;56.026;35.960;2022-12-07T01:01:25;8.80;;;2.83;;
75044;SDS011;63614;56.026;35.960;2022-12-07T01:03:53;5.93;;;3.03;;
75044;SDS011;63614;56.026;35.960;2022-12-07T01:06:19;7.50;;;3.10;;
75044;SDS011;63614;56.026;35.960;2022-12-07T01:11:13;7.47;;;3.33;;
75044;SDS011;63614;56.026;35.960;2022-12-07T01:13:41;6.72;;;3.13;;
75044;SDS011;63614;56.026;35.960;2022-12-07T01:16:08;6.20;;;2.95;;
75044;SDS011;63614;56.026;35.960;2022-12-07T01:18:36;14.85;;;3.45;;
75044;SDS011;63614;56.026;35.960;2022-12-07T01:21:10;6.68;;;3.03;;
75044;SDS011;63614;56.026;35.960;2022-12-07T01:23:37;10.15;;;3.50;;
75044;SDS011;63614;56.026;35.960;2022-12-07T01:26:05;5.25;;;2.75;;
75044;SDS011;63614;56.026;35.960;2022-12-07T01:28:36;5.20;;;3.00;;
75044;SDS011;63614;56.026;35.960;2022-12-07T01:31:03;7.30;;;3.17;;
75044;SDS011;63614;56.026;35.960;2022-12-07T01:33:31;6.22;;;3.38;;
75044;SDS011;63614;56.026;35.960;2022-12-07T01:36:06;8.90;;;3.72;;
75044;SDS011;63614;56.026;35.960;2022-12-07T01:38:43;6.28;;;3.28;;
75044;SDS011;63614;56.026;35.960;2022-12-07T01:41:10;6.27;;;3.47;;
75044;SDS011;63614;56.026;35.960;2022-12-07T01:43:36;7.00;;;3.00;;
75044;SDS011;63614;56.026;35.960;2022-12-07T01:46:22;7.93;;;3.25;;
75044;SDS011;63614;56.026;35.960;2022-12-07T01:48:48;6.38;;;3.22;;
75044;SDS011;63614;56.026;35.960;2022-12-07T01:51:14;6.78;;;3.47;;
75044;SDS011;63614;56.026;35.960;2022-12-07T01:53:42;6.72;;;3.40;;
75044;SDS011;63614;56.026;35.960;2022-12-07T01:56:11;7.75;;;3.30;;
75044;SDS011;63614;56.026;35.960;2022-12-07T01:58:42;11.35;;;3.42;;
75044;SDS011;63614;56.026;35.960;2022-12-07T02:01:09;9.18;;;3.50;;
75044;SDS011;63614;56.026;35.960;2022-12-07T02:03:39;5.07;;;2.92;;
75044;SDS011;63614;56.026;35.960;2022-12-07T02:06:07;6.57;;;3.90;;
75044;SDS011;63614;56.026;35.960;2022-12-07T02:08:34;8.60;;;3.03;;
75044;SDS011;63614;56.026;35.960;2022-12-07T02:11:03;6.35;;;3.13;;
75044;SDS011;63614;56.026;35.960;2022-12-07T02:13:33;7.38;;;3.25;;
75044;SDS011;63614;56.026;35.960;2022-12-07T02:30:06;8.23;;;3.50;;
75044;SDS011;63614;56.026;35.960;2022-12-07T02:35:24;5.72;;;3.17;;
75044;SDS011;63614;56.026;35.960;2022-12-07T02:38:10;6.27;;;3.47;;
75044;SDS011;63614;56.026;35.960;2022-12-07T02:41:03;11.00;;;3.60;;
75044;SDS011;63614;56.026;35.960;2022-12-07T02:43:43;7.85;;;3.75;;
75044;SDS011;63614;56.026;35.960;2022-12-07T02:46:14;7.45;;;3.42;;
75044;SDS011;63614;56.026;35.960;2022-12-07T02:48:43;8.82;;;3.65;;
75044;SDS011;63614;56.026;35.960;2022-12-07T02:51:10;11.13;;;3.65;;
75044;SDS011;63614;56.026;35.960;2022-12-07T02:53:37;6.00;;;2.83;;
75044;SDS011;63614;56.026;35.960;2022-12-07T03:12:36;8.27;;;3.75;;
75044;SDS011;63614;56.026;35.960;2022-12-07T03:15:14;8.10;;;3.50;;
75044;SDS011;63614;56.026;35.960;2022-12-07T03:17:48;7.30;;;3.20;;
75044;SDS011;63614;56.026;35.960;2022-12-07T03:20:17;9.85;;;3.80;;
75044;SDS011;63614;56.026;35.960;2022-12-07T03:22:46;9.05;;;4.03;;
75044;SDS011;63614;56.026;35.960;2022-12-07T03:25:13;8.32;;;3.60;;
75044;SDS011;63614;56.026;35.960;2022-12-07T03:27:53;5.90;;;3.13;;
75044;SDS011;63614;56.026;35.960;2022-12-07T03:30:42;6.65;;;3.20;;
75044;SDS011;63614;56.026;35.960;2022-12-07T03:33:19;8.27;;;3.67;;
75044;SDS011;63614;56.026;35.960;2022-12-07T03:36:04;6.05;;;2.97;;
75044;SDS011;63614;56.026;35.960;2022-12-07T03:41:54;6.40;;;3.47;;
75044;SDS011;63614;56.026;35.960;2022-12-07T03:44:21;5.80;;;2.63;;
75044;SDS011;63614;56.026;35.960;2022-12-07T03:46:56;7.73;;;3.90;;
75044;SDS011;63614;56.026;35.960;2022-12-07T03:49:37;11.02;;;3.50;;
75044;SDS011;63614;56.026;35.960;2022-12-07T03:52:25;6.00;;;3.60;;
75044;SDS011;63614;56.026;35.960;2022-12-07T03:55:08;5.85;;;3.25;;
75044;SDS011;63614;56.026;35.960;2022-12-07T03:57:40;7.32;;;3.58;;
75044;SDS011;63614;56.026;35.960;2022-12-07T04:00:09;10.57;;;3.30;;
75044;SDS011;63614;56.026;35.960;2022-12-07T04:02:39;6.72;;;3.30;;
75044;SDS011;63614;56.026;35.960;2022-12-07T04:05:06;6.75;;;3.28;;
75044;SDS011;63614;56.026;35.960;2022-12-07T04:07:33;6.35;;;3.53;;
75044;SDS011;63614;56.026;35.960;2022-12-07T04:09:58;11.38;;;3.90;;
75044;SDS011;63614;56.026;35.960;2022-12-07T04:12:25;11.75;;;4.32;;
75044;SDS011;63614;56.026;35.960;2022-12-07T04:14:50;9.63;;;3.50;;
75044;SDS011;63614;56.026;35.960;2022-12-07T04:17:16;16.02;;;3.92;;
75044;SDS011;63614;56.026;35.960;2022-12-07T04:19:42;5.43;;;3.28;;
75044;SDS011;63614;56.026;35.960;2022-12-07T04:22:08;12.25;;;3.60;;
75044;SDS011;63614;56.026;35.960;2022-12-07T04:24:34;6.93;;;2.90;;
75044;SDS011;63614;56.026;35.960;2022-12-07T04:27:00;5.45;;;3.25;;
75044;SDS011;63614;56.026;35.960;2022-12-07T04:29:26;7.25;;;3.67;;
75044;SDS011;63614;56.026;35.960;2022-12-07T04:31:52;6.82;;;3.30;;
75044;SDS011;63614;56.026;35.960;2022-12-07T04:34:18;6.70;;;3.17;;
75044;SDS011;63614;56.026;35.960;2022-12-07T04:36:45;7.88;;;4.10;;
75044;SDS011;63614;56.026;35.960;2022-12-07T04:39:21;6.05;;;3.28;;
75044;SDS011;63614;56.026;35.960;2022-12-07T04:41:49;5.63;;;2.73;;
75044;SDS011;63614;56.026;35.960;2022-12-07T04:44:15;9.88;;;3.35;;
75044;SDS011;63614;56.026;35.960;2022-12-07T04:46:41;6.25;;;3.47;;
75044;SDS011;63614;56.026;35.960;2022-12-07T04:49:08;9.68;;;4.03;;
75044;SDS011;63614;56.026;35.960;2022-12-07T04:51:34;8.27;;;3.97;;
75044;SDS011;63614;56.026;35.960;2022-12-07T04:54:00;7.07;;;3.60;;
75044;SDS011;63614;56.026;35.960;2022-12-07T04:56:25;7.25;;;3.58;;
75044;SDS011;63614;56.026;35.960;2022-12-07T04:58:52;6.65;;;3.38;;
75044;SDS011;63614;56.026;35.960;2022-12-07T05:01:19;6.03;;;3.20;;
75044;SDS011;63614;56.026;35.960;2022-12-07T05:03:47;7.80;;;3.35;;
75044;SDS011;63614;56.026;35.960;2022-12-07T05:06:14;5.85;;;3.13;;
75044;SDS011;63614;56.026;35.960;2022-12-07T05:08:40;10.80;;;3.67;;
75044;SDS011;63614;56.026;35.960;2022-12-07T05:11:06;7.28;;;3.95;;
75044;SDS011;63614;56.026;35.960;2022-12-07T05:13:33;7.03;;;4.10;;
75044;SDS011;63614;56.026;35.960;2022-12-07T05:15:59;9.05;;;3.60;;
75044;SDS011;63614;56.026;35.960;2022-12-07T05:18:24;10.82;;;3.35;;
75044;SDS011;63614;56.026;35.960;2022-12-07T05:20:51;7.20;;;3.53;;
75044;SDS011;63614;56.026;35.960;2022-12-07T05:23:17;16.77;;;3.38;;
75044;SDS011;63614;56.026;35.960;2022-12-07T05:25:43;10.05;;;3.35;;
75044;SDS011;63614;56.026;35.960;2022-12-07T05:28:09;7.65;;;3.88;;
75044;SDS011;63614;56.026;35.960;2022-12-07T05:30:35;8.88;;;3.25;;
75044;SDS011;63614;56.026;35.960;2022-12-07T05:33:04;14.70;;;3.47;;
75044;SDS011;63614;56.026;35.960;2022-12-07T05:35:30;6.53;;;2.72;;
75044;SDS011;63614;56.026;35.960;2022-12-07T05:37:56;8.10;;;3.53;;
75044;SDS011;63614;56.026;35.960;2022-12-07T05:40:23;6.45;;;3.45;;
75044;SDS011;63614;56.026;35.960;2022-12-07T05:42:49;7.22;;;3.33;;
75044;SDS011;63614;56.026;35.960;2022-12-07T05:45:15;7.00;;;3.58;;
75044;SDS011;63614;56.026;35.960;2022-12-07T05:47:41;5.90;;;3.33;;
75044;SDS011;63614;56.026;35.960;2022-12-07T05:50:07;7.47;;;3.72;;
75044;SDS011;63614;56.026;35.960;2022-12-07T05:52:33;8.38;;;4.22;;
75044;SDS011;63614;56.026;35.960;2022-12-07T05:54:58;6.50;;;2.97;;
75044;SDS011;63614;56.026;35.960;2022-12-07T05:57:24;9.00;;;3.40;;
75044;SDS011;63614;56.026;35.960;2022-12-07T05:59:50;6.68;;;3.60;;
75044;SDS011;63614;56.026;35.960;2022-12-07T06:02:16;19.50;;;3.83;;
75044;SDS011;63614;56.026;35.960;2022-12-07T06:04:44;6.78;;;3.67;;
75044;SDS011;63614;56.026;35.960;2022-12-07T06:07:12;8.85;;;3.80;;
75044;SDS011;63614;56.026;35.960;2022-12-07T06:09:40;8.00;;;3.63;;
75044;SDS011;63614;56.026;35.960;2022-12-07T06:12:06;8.52;;;3.80;;
75044;SDS011;63614;56.026;35.960;2022-12-07T06:14:53;7.35;;;3.45;;
75044;SDS011;63614;56.026;35.960;2022-12-07T06:17:18;7.15;;;3.50;;
75044;SDS011;63614;56.026;35.960;2022-12-07T06:19:44;7.95;;;3.72;;
75044;SDS011;63614;56.026;35.960;2022-12-07T06:22:10;8.80;;;3.88;;
75044;SDS011;63614;56.026;35.960;2022-12-07T06:24:37;8.65;;;4.35;;
75044;SDS011;63614;56.026;35.960;2022-12-07T06:27:03;7.85;;;4.13;;
75044;SDS011;63614;56.026;35.960;2022-12-07T06:29:30;11.52;;;4.20;;
75044;SDS011;63614;56.026;35.960;2022-12-07T06:31:56;8.77;;;4.60;;
75044;SDS011;63614;56.026;35.960;2022-12-07T06:34:22;6.90;;;3.63;;
75044;SDS011;63614;56.026;35.960;2022-12-07T06:36:49;11.57;;;4.32;;
75044;SDS011;63614;56.026;35.960;2022-12-07T06:39:19;8.77;;;4.25;;
75044;SDS011;63614;56.026;35.960;2022-12-07T06:41:46;8.82;;;3.28;;
75044;SDS011;63614;56.026;35.960;2022-12-07T06:44:12;7.70;;;4.47;;
75044;SDS011;63614;56.026;35.960;2022-12-07T06:46:38;6.00;;;3.47;;
75044;SDS011;63614;56.026;35.960;2022-12-07T06:49:04;8.60;;;4.45;;
75044;SDS011;63614;56.026;35.960;2022-12-07T06:51:31;9.20;;;4.32;;
75044;SDS011;63614;56.026;35.960;2022-12-07T06:53:57;9.67;;;4.53;;
75044;SDS011;63614;56.026;35.960;2022-12-07T06:56:23;10.35;;;4.82;;
75044;SDS011;63614;56.026;35.960;2022-12-07T06:58:49;8.27;;;4.18;;
75044;SDS011;63614;56.026;35.960;2022-12-07T07:01:16;10.13;;;3.78;;
75044;SDS011;63614;56.026;35.960;2022-12-07T07:03:44;9.35;;;3.78;;
75044;SDS011;63614;56.026;35.960;2022-12-07T07:06:11;8.15;;;3.92;;
75044;SDS011;63614;56.026;35.960;2022-12-07T07:08:38;11.85;;;4.57;;
75044;SDS011;63614;56.026;35.960;2022-12-07T07:11:06;10.43;;;4.03;;
75044;SDS011;63614;56.026;35.960;2022-12-07T07:13:33;7.55;;;3.90;;
75044;SDS011;63614;56.026;35.960;2022-12-07T07:15:59;8.60;;;4.00;;
75044;SDS011;63614;56.026;35.960;2022-12-07T07:18:25;8.57;;;3.88;;
75044;SDS011;63614;56.026;35.960;2022-12-07T07:20:51;10.82;;;4.63;;
75044;SDS011;63614;56.026;35.960;2022-12-07T07:23:18;8.93;;;3.95;;
75044;SDS011;63614;56.026;35.960;2022-12-07T07:25:44;10.05;;;4.72;;
75044;SDS011;63614;56.026;35.960;2022-12-07T07:28:11;13.18;;;4.72;;
75044;SDS011;63614;56.026;35.960;2022-12-07T07:30:36;13.15;;;4.22;;
75044;SDS011;63614;56.026;35.960;2022-12-07T07:33:03;12.25;;;5.10;;
75044;SDS011;63614;56.026;35.960;2022-12-07T07:35:30;7.77;;;4.77;;
75044;SDS011;63614;56.026;35.960;2022-12-07T07:37:57;8.48;;;4.20;;
75044;SDS011;63614;56.026;35.960;2022-12-07T07:40:23;9.98;;;4.05;;
75044;SDS011;63614;56.026;35.960;2022-12-07T07:42:52;11.40;;;4.65;;
75044;SDS011;63614;56.026;35.960;2022-12-07T07:45:19;8.02;;;4.18;;
75044;SDS011;63614;56.026;35.960;2022-12-07T07:47:47;15.40;;;5.07;;
75044;SDS011;63614;56.026;35.960;2022-12-07T07:50:13;10.30;;;4.47;;
75044;SDS011;63614;56.026;35.960;2022-12-07T07:52:39;12.32;;;4.47;;
75044;SDS011;63614;56.026;35.960;2022-12-07T07:55:05;12.95;;;4.40;;
75044;SDS011;63614;56.026;35.960;2022-12-07T07:57:34;10.25;;;4.47;;
75044;SDS011;63614;56.026;35.960;2022-12-07T08:00:01;10.82;;;4.47;;
75044;SDS011;63614;56.026;35.960;2022-12-07T08:02:38;11.05;;;4.68;;
75044;SDS011;63614;56.026;35.960;2022-12-07T08:05:05;14.30;;;4.83;;
75044;SDS011;63614;56.026;35.960;2022-12-07T08:07:31;9.27;;;4.18;;
75044;SDS011;63614;56.026;35.960;2022-12-07T08:09:57;10.05;;;4.88;;
75044;SDS011;63614;56.026;35.960;2022-12-07T08:12:23;12.63;;;4.47;;
75044;SDS011;63614;56.026;35.960;2022-12-07T08:14:49;10.23;;;4.70;;
75044;SDS011;63614;56.026;35.960;2022-12-07T08:17:15;8.23;;;4.53;;
75044;SDS011;63614;56.026;35.960;2022-12-07T08:19:41;10.93;;;4.70;;
75044;SDS011;63614;56.026;35.960;2022-12-07T08:22:06;8.55;;;3.90;;
75044;SDS011;63614;56.026;35.960;2022-12-07T08:24:33;8.57;;;3.67;;
75044;SDS011;63614;56.026;35.960;2022-12-07T08:26:59;12.93;;;4.70;;
75044;SDS011;63614;56.026;35.960;2022-12-07T08:29:26;8.93;;;4.50;;
75044;SDS011;63614;56.026;35.960;2022-12-07T08:31:52;13.55;;;5.43;;
75044;SDS011;63614;56.026;35.960;2022-12-07T08:34:18;8.75;;;4.78;;
75044;SDS011;63614;56.026;35.960;2022-12-07T08:36:43;10.90;;;4.50;;
75044;SDS011;63614;56.026;35.960;2022-12-07T08:39:09;12.07;;;5.00;;
75044;SDS011;63614;56.026;35.960;2022-12-07T08:41:35;10.63;;;4.30;;
75044;SDS011;63614;56.026;35.960;2022-12-07T08:44:01;7.70;;;4.10;;
75044;SDS011;63614;56.026;35.960;2022-12-07T08:46:38;8.90;;;4.97;;
75044;SDS011;63614;56.026;35.960;2022-12-07T08:49:11;11.18;;;5.22;;
75044;SDS011;63614;56.026;35.960;2022-12-07T08:51:49;13.82;;;4.47;;
75044;SDS011;63614;56.026;35.960;2022-12-07T08:54:16;13.43;;;4.90;;
75044;SDS011;63614;56.026;35.960;2022-12-07T08:56:44;8.13;;;3.78;;
75044;SDS011;63614;56.026;35.960;2022-12-07T09:01:39;10.50;;;4.57;;
75044;SDS011;63614;56.026;35.960;2022-12-07T09:04:05;14.18;;;4.68;;
75044;SDS011;63614;56.026;35.960;2022-12-07T09:06:31;15.48;;;4.32;;
75044;SDS011;63614;56.026;35.960;2022-12-07T09:08:58;8.40;;;4.35;;
75044;SDS011;63614;56.026;35.960;2022-12-07T09:11:27;6.50;;;3.78;;
75044;SDS011;63614;56.026;35.960;2022-12-07T09:13:53;9.05;;;4.78;;
75044;SDS011;63614;56.026;35.960;2022-12-07T09:16:19;11.23;;;4.80;;
75044;SDS011;63614;56.026;35.960;2022-12-07T09:18:44;11.70;;;4.78;;
75044;SDS011;63614;56.026;35.960;2022-12-07T09:21:10;10.75;;;4.45;;
75044;SDS011;63614;56.026;35.960;2022-12-07T09:23:36;9.57;;;4.07;;
75044;SDS011;63614;56.026;35.960;2022-12-07T09:26:02;11.70;;;4.25;;
75044;SDS011;63614;56.026;35.960;2022-12-07T09:28:30;8.68;;;4.10;;
75044;SDS011;63614;56.026;35.960;2022-12-07T09:30:56;11.97;;;4.73;;
75044;SDS011;63614;56.026;35.960;2022-12-07T09:33:22;10.52;;;4.70;;
75044;SDS011;63614;56.026;35.960;2022-12-07T09:35:49;10.07;;;4.03;;
75044;SDS011;63614;56.026;35.960;2022-12-07T09:40:42;8.25;;;3.47;;
75044;SDS011;63614;56.026;35.960;2022-12-07T09:43:16;7.93;;;4.10;;
75044;SDS011;63614;56.026;35.960;2022-12-07T09:45:49;7.18;;;4.40;;
75044;SDS011;63614;56.026;35.960;2022-12-07T09:48:19;9.07;;;3.85;;
75044;SDS011;63614;56.026;35.960;2022-12-07T09:50:48;7.93;;;3.97;;
75044;SDS011;63614;56.026;35.960;2022-12-07T09:53:27;7.78;;;4.25;;
75044;SDS011;63614;56.026;35.960;2022-12-07T09:55:54;11.75;;;4.97;;
75044;SDS011;63614;56.026;35.960;2022-12-07T09:58:24;9.80;;;4.13;;
75044;SDS011;63614;56.026;35.960;2022-12-07T10:01:28;10.40;;;4.68;;
75044;SDS011;63614;56.026;35.960;2022-12-07T10:03:51;9.32;;;4.10;;
75044;SDS011;63614;56.026;35.960;2022-12-07T10:06:19;9.95;;;4.47;;
75044;SDS011;63614;56.026;35.960;2022-12-07T10:08:46;10.25;;;4.68;;
75044;SDS011;63614;56.026;35.960;2022-12-07T10:11:12;8.75;;;4.65;;
75044;SDS011;63614;56.026;35.960;2022-12-07T10:13:41;8.77;;;4.95;;
75044;SDS011;63614;56.026;35.960;2022-12-07T10:18:57;12.27;;;4.82;;
75044;SDS011;63614;56.026;35.960;2022-12-07T10:21:42;15.45;;;5.45;;
75044;SDS011;63614;56.026;35.960;2022-12-07T10:24:35;18.30;;;4.95;;
75044;SDS011;63614;56.026;35.960;2022-12-07T10:27:04;12.98;;;4.72;;
75044;SDS011;63614;56.026;35.960;2022-12-07T10:29:37;10.15;;;4.55;;
75044;SDS011;63614;56.026;35.960;2022-12-07T10:34:50;11.07;;;4.53;;
75044;SDS011;63614;56.026;35.960;2022-12-07T10:37:39;9.45;;;4.13;;
75044;SDS011;63614;56.026;35.960;2022-12-07T10:40:10;10.60;;;4.93;;
75044;SDS011;63614;56.026;35.960;2022-12-07T10:51:06;8.43;;;4.18;;
75044;SDS011;63614;56.026;35.960;2022-12-07T10:53:50;9.10;;;4.40;;
75044;SDS011;63614;56.026;35.960;2022-12-07T11:02:26;9.63;;;4.00;;
75044;SDS011;63614;56.026;35.960;2022-12-07T11:05:16;7.72;;;3.95;;
75044;SDS011;63614;56.026;35.960;2022-12-07T11:16:28;9.35;;;4.72;;
75044;SDS011;63614;56.026;35.960;2022-12-07T11:38:08;12.50;;;4.00;;
75044;SDS011;63614;56.026;35.960;2022-12-07T11:40:40;9.50;;;4.15;;
75044;SDS011;63614;56.026;35.960;2022-12-07T11:51:36;10.38;;;3.72;;
75044;SDS011;63614;56.026;35.960;2022-12-07T11:54:21;9.30;;;4.18;;
75044;SDS011;63614;56.026;35.960;2022-12-07T11:57:04;6.35;;;3.55;;
75044;SDS011;63614;56.026;35.960;2022-12-07T11:59:39;11.10;;;4.53;;
75044;SDS011;63614;56.026;35.960;2022-12-07T12:02:25;8.32;;;4.15;;
75044;SDS011;63614;56.026;35.960;2022-12-07T12:07:38;8.98;;;4.53;;
75044;SDS011;63614;56.026;35.960;2022-12-07T12:21:30;14.02;;;4.18;;
75044;SDS011;63614;56.026;35.960;2022-12-07T12:24:02;7.90;;;4.35;;
75044;SDS011;63614;56.026;35.960;2022-12-07T12:26:35;9.15;;;4.70;;
75044;SDS011;63614;56.026;35.960;2022-12-07T12:29:13;9.30;;;4.60;;
75044;SDS011;63614;56.026;35.960;2022-12-07T12:32:04;15.05;;;4.70;;
75044;SDS011;63614;56.026;35.960;2022-12-07T12:34:41;9.35;;;4.38;;
75044;SDS011;63614;56.026;35.960;2022-12-07T12:37:38;8.75;;;4.03;;
75044;SDS011;63614;56.026;35.960;2022-12-07T12:42:45;10.02;;;4.38;;
75044;SDS011;63614;56.026;35.960;2022-12-07T12:47:52;9.30;;;4.82;;
75044;SDS011;63614;56.026;35.960;2022-12-07T12:50:23;14.52;;;4.78;;
75044;SDS011;63614;56.026;35.960;2022-12-07T13:20:57;9.25;;;5.05;;
75044;SDS011;63614;56.026;35.960;2022-12-07T13:23:37;8.20;;;4.03;;
75044;SDS011;63614;56.026;35.960;2022-12-07T13:34:47;11.55;;;4.60;;
75044;SDS011;63614;56.026;35.960;2022-12-07T13:37:28;17.52;;;5.57;;
75044;SDS011;63614;56.026;35.960;2022-12-07T13:39:58;11.70;;;5.22;;
75044;SDS011;63614;56.026;35.960;2022-12-07T13:44:52;12.73;;;5.10;;
75044;SDS011;63614;56.026;35.960;2022-12-07T13:50:22;9.23;;;4.63;;
75044;SDS011;63614;56.026;35.960;2022-12-07T13:52:50;9.30;;;5.13;;
75044;SDS011;63614;56.026;35.960;2022-12-07T13:55:20;9.63;;;4.95;;
75044;SDS011;63614;56.026;35.960;2022-12-07T13:57:50;8.25;;;4.32;;
75044;SDS011;63614;56.026;35.960;2022-12-07T14:00:18;15.05;;;5.00;;
75044;SDS011;63614;56.026;35.960;2022-12-07T14:03:00;9.43;;;5.30;;
75044;SDS011;63614;56.026;35.960;2022-12-07T14:05:30;12.05;;;5.10;;
75044;SDS011;63614;56.026;35.960;2022-12-07T14:07:58;11.80;;;5.15;;
75044;SDS011;63614;56.026;35.960;2022-12-07T14:12:55;10.75;;;5.45;;
75044;SDS011;63614;56.026;35.960;2022-12-07T14:15:22;9.50;;;4.68;;
75044;SDS011;63614;56.026;35.960;2022-12-07T14:17:56;23.27;;;5.63;;
75044;SDS011;63614;56.026;35.960;2022-12-07T14:20:33;11.27;;;5.28;;
75044;SDS011;63614;56.026;35.960;2022-12-07T14:26:09;10.90;;;5.60;;
75044;SDS011;63614;56.026;35.960;2022-12-07T14:28:33;12.33;;;6.30;;
75044;SDS011;63614;56.026;35.960;2022-12-07T14:31:01;12.00;;;5.00;;
75044;SDS011;63614;56.026;35.960;2022-12-07T14:33:28;14.73;;;6.33;;
75044;SDS011;63614;56.026;35.960;2022-12-07T14:35:55;17.27;;;6.55;;
75044;SDS011;63614;56.026;35.960;2022-12-07T14:38:23;15.18;;;5.78;;
75044;SDS011;63614;56.026;35.960;2022-12-07T14:40:50;12.23;;;5.45;;
75044;SDS011;63614;56.026;35.960;2022-12-07T14:43:17;10.13;;;5.43;;
75044;SDS011;63614;56.026;35.960;2022-12-07T14:45:45;11.93;;;6.57;;
75044;SDS011;63614;56.026;35.960;2022-12-07T14:48:11;15.65;;;6.57;;
75044;SDS011;63614;56.026;35.960;2022-12-07T14:50:40;13.18;;;5.50;;
75044;SDS011;63614;56.026;35.960;2022-12-07T14:53:13;14.13;;;6.35;;
75044;SDS011;63614;56.026;35.960;2022-12-07T14:55:41;15.02;;;6.95;;
75044;SDS011;63614;56.026;35.960;2022-12-07T14:58:13;18.38;;;6.22;;
75044;SDS011;63614;56.026;35.960;2022-12-07T15:00:40;13.48;;;6.88;;
75044;SDS011;63614;56.026;35.960;2022-12-07T15:03:07;18.92;;;7.63;;
75044;SDS011;63614;56.026;35.960;2022-12-07T15:05:33;11.75;;;5.93;;
75044;SDS011;63614;56.026;35.960;2022-12-07T15:07:59;14.37;;;7.40;;
75044;SDS011;63614;56.026;35.960;2022-12-07T15:10:27;16.00;;;7.32;;
75044;SDS011;63614;56.026;35.960;2022-12-07T15:12:58;14.80;;;6.82;;
75044;SDS011;63614;56.026;35.960;2022-12-07T15:15:44;17.58;;;7.07;;
75044;SDS011;63614;56.026;35.960;2022-12-07T15:18:10;13.43;;;7.00;;
75044;SDS011;63614;56.026;35.960;2022-12-07T15:20:36;17.02;;;7.63;;
75044;SDS011;63614;56.026;35.960;2022-12-07T15:23:02;15.68;;;6.72;;
75044;SDS011;63614;56.026;35.960;2022-12-07T15:25:28;9.35;;;5.13;;
75044;SDS011;63614;56.026;35.960;2022-12-07T15:27:54;12.23;;;6.75;;
75044;SDS011;63614;56.026;35.960;2022-12-07T15:30:20;13.38;;;5.32;;
75044;SDS011;63614;56.026;35.960;2022-12-07T15:32:49;20.58;;;7.05;;
75044;SDS011;63614;56.026;35.960;2022-12-07T15:35:15;14.63;;;6.30;;
75044;SDS011;63614;56.026;35.960;2022-12-07T15:37:41;14.75;;;6.45;;
75044;SDS011;63614;56.026;35.960;2022-12-07T15:40:07;13.77;;;5.97;;
75044;SDS011;63614;56.026;35.960;2022-12-07T15:42:34;10.25;;;5.72;;
75044;SDS011;63614;56.026;35.960;2022-12-07T15:45:00;12.47;;;6.03;;
75044;SDS011;63614;56.026;35.960;2022-12-07T15:47:34;23.02;;;6.13;;
75044;SDS011;63614;56.026;35.960;2022-12-07T15:50:05;14.07;;;7.10;;
75044;SDS011;63614;56.026;35.960;2022-12-07T15:52:33;12.13;;;6.35;;
75044;SDS011;63614;56.026;35.960;2022-12-07T15:54:59;20.60;;;6.78;;
75044;SDS011;63614;56.026;35.960;2022-12-07T15:57:25;17.08;;;6.35;;
75044;SDS011;63614;56.026;35.960;2022-12-07T15:59:52;12.07;;;6.15;;
75044;SDS011;63614;56.026;35.960;2022-12-07T16:02:21;12.57;;;6.27;;
75044;SDS011;63614;56.026;35.960;2022-12-07T16:04:48;16.25;;;6.47;;
75044;SDS011;63614;56.026;35.960;2022-12-07T16:07:15;14.93;;;6.20;;
75044;SDS011;63614;56.026;35.960;2022-12-07T16:09:42;14.60;;;7.57;;
75044;SDS011;63614;56.026;35.960;2022-12-07T16:12:09;15.57;;;7.20;;
75044;SDS011;63614;56.026;35.960;2022-12-07T16:14:36;24.10;;;7.13;;
75044;SDS011;63614;56.026;35.960;2022-12-07T16:17:02;15.13;;;7.03;;
75044;SDS011;63614;56.026;35.960;2022-12-07T16:19:30;16.77;;;7.78;;
75044;SDS011;63614;56.026;35.960;2022-12-07T16:21:56;13.18;;;6.10;;
75044;SDS011;63614;56.026;35.960;2022-12-07T16:24:22;16.98;;;7.28;;
75044;SDS011;63614;56.026;35.960;2022-12-07T16:26:48;13.73;;;7.07;;
75044;SDS011;63614;56.026;35.960;2022-12-07T16:29:14;13.20;;;6.90;;
75044;SDS011;63614;56.026;35.960;2022-12-07T16:31:41;13.60;;;6.53;;
75044;SDS011;63614;56.026;35.960;2022-12-07T16:34:07;14.70;;;6.97;;
75044;SDS011;63614;56.026;35.960;2022-12-07T16:36:35;14.40;;;7.63;;
75044;SDS011;63614;56.026;35.960;2022-12-07T16:39:01;16.00;;;7.22;;
75044;SDS011;63614;56.026;35.960;2022-12-07T16:41:27;10.88;;;5.70;;
75044;SDS011;63614;56.026;35.960;2022-12-07T16:43:53;14.68;;;7.28;;
75044;SDS011;63614;56.026;35.960;2022-12-07T16:46:19;13.30;;;6.82;;
75044;SDS011;63614;56.026;35.960;2022-12-07T16:48:45;18.10;;;7.40;;
75044;SDS011;63614;56.026;35.960;2022-12-07T16:51:11;13.77;;;6.72;;
75044;SDS011;63614;56.026;35.960;2022-12-07T16:53:39;12.45;;;5.30;;
75044;SDS011;63614;56.026;35.960;2022-12-07T16:56:11;16.27;;;7.00;;
75044;SDS011;63614;56.026;35.960;2022-12-07T16:58:40;16.45;;;7.75;;
75044;SDS011;63614;56.026;35.960;2022-12-07T17:01:14;12.77;;;7.18;;
75044;SDS011;63614;56.026;35.960;2022-12-07T17:03:42;14.73;;;7.43;;
75044;SDS011;63614;56.026;35.960;2022-12-07T17:06:16;16.90;;;7.20;;
75044;SDS011;63614;56.026;35.960;2022-12-07T17:08:43;13.35;;;6.57;;
75044;SDS011;63614;56.026;35.960;2022-12-07T17:11:13;14.55;;;7.38;;
75044;SDS011;63614;56.026;35.960;2022-12-07T17:13:41;13.80;;;7.10;;
75044;SDS011;63614;56.026;35.960;2022-12-07T17:16:25;12.52;;;6.15;;
75044;SDS011;63614;56.026;35.960;2022-12-07T17:18:51;17.33;;;7.10;;
75044;SDS011;63614;56.026;35.960;2022-12-07T17:21:17;17.50;;;6.95;;
75044;SDS011;63614;56.026;35.960;2022-12-07T17:23:45;13.75;;;6.32;;
75044;SDS011;63614;56.026;35.960;2022-12-07T17:26:12;13.02;;;6.85;;